sensor_id;sensor_type;location;lat;lon;timestamp;pressure;altitude;pressure_sealevel;temperature
43292;BMP280;28754;47.700;7.924;2024-03-08T00:00:28;90911.53;;;3.20
43292;BMP280;28754;47.700;7.924;2024-03-08T00:03:15;90913.72;;;3.16
43292;BMP280;28754;47.700;7.924;2024-03-08T00:06:02;90915.72;;;3.14
43292;BMP280;28754;47.700;7.924;2024-03-08T00:08:48;90920.25;;;3.12
43292;BMP280;28754;47.700;7.924;2024-03-08T00:11:35;90913.84;;;3.10
43292;BMP280;28754;47.700;7.924;2024-03-08T00:14:22;90928.50;;;3.08
43292;BMP280;28754;47.700;7.924;2024-03-08T00:17:08;90919.38;;;3.07
43292;BMP280;28754;47.700;7.924;2024-03-08T00:19:55;90922.91;;;3.06
43292;BMP280;28754;47.700;7.924;2024-03-08T00:22:42;90916.50;;;3.04
43292;BMP280;28754;47.700;7.924;2024-03-08T00:25:29;90915.19;;;3.01
43292;BMP280;28754;47.700;7.924;2024-03-08T00:28:16;90903.78;;;2.99
43292;BMP280;28754;47.700;7.924;2024-03-08T00:31:05;90895.44;;;2.98
43292;BMP280;28754;47.700;7.924;2024-03-08T00:33:53;90891.69;;;3.01
43292;BMP280;28754;47.700;7.924;2024-03-08T00:36:40;90889.47;;;3.04
43292;BMP280;28754;47.700;7.924;2024-03-08T00:39:26;90882.66;;;3.05
43292;BMP280;28754;47.700;7.924;2024-03-08T00:42:13;90886.84;;;2.99
43292;BMP280;28754;47.700;7.924;2024-03-08T00:45:00;90877.63;;;2.93
43292;BMP280;28754;47.700;7.924;2024-03-08T00:47:46;90877.84;;;2.92
43292;BMP280;28754;47.700;7.924;2024-03-08T00:50:33;90883.66;;;2.92
43292;BMP280;28754;47.700;7.924;2024-03-08T00:53:20;90879.84;;;2.90
43292;BMP280;28754;47.700;7.924;2024-03-08T00:56:08;90866.84;;;2.86
43292;BMP280;28754;47.700;7.924;2024-03-08T00:58:57;90871.16;;;2.86
43292;BMP280;28754;47.700;7.924;2024-03-08T01:01:45;90867.88;;;2.85
43292;BMP280;28754;47.700;7.924;2024-03-08T01:04:32;90863.28;;;2.82
43292;BMP280;28754;47.700;7.924;2024-03-08T01:07:19;90863.28;;;2.82
43292;BMP280;28754;47.700;7.924;2024-03-08T01:10:06;90853.59;;;2.79
43292;BMP280;28754;47.700;7.924;2024-03-08T01:12:55;90845.03;;;2.80
43292;BMP280;28754;47.700;7.924;2024-03-08T01:15:43;90853.59;;;2.79
43292;BMP280;28754;47.700;7.924;2024-03-08T01:18:30;90836.91;;;2.78
43292;BMP280;28754;47.700;7.924;2024-03-08T01:21:16;90844.69;;;2.77
43292;BMP280;28754;47.700;7.924;2024-03-08T01:24:03;90832.72;;;2.72
43292;BMP280;28754;47.700;7.924;2024-03-08T01:26:50;90834.16;;;2.69
43292;BMP280;28754;47.700;7.924;2024-03-08T01:29:37;90843.19;;;2.65
43292;BMP280;28754;47.700;7.924;2024-03-08T01:32:24;90830.53;;;2.65
43292;BMP280;28754;47.700;7.924;2024-03-08T01:35:10;90822.31;;;2.58
43292;BMP280;28754;47.700;7.924;2024-03-08T01:37:57;90822.13;;;2.59
43292;BMP280;28754;47.700;7.924;2024-03-08T01:40:44;90824.84;;;2.58
43292;BMP280;28754;47.700;7.924;2024-03-08T01:43:31;90817.19;;;2.53
43292;BMP280;28754;47.700;7.924;2024-03-08T01:46:20;90818.06;;;2.47
43292;BMP280;28754;47.700;7.924;2024-03-08T01:49:08;90818.06;;;2.47
43292;BMP280;28754;47.700;7.924;2024-03-08T01:51:55;90808.19;;;2.45
43292;BMP280;28754;47.700;7.924;2024-03-08T01:54:43;90811.25;;;2.47
43292;BMP280;28754;47.700;7.924;2024-03-08T01:57:31;90810.16;;;2.55
43292;BMP280;28754;47.700;7.924;2024-03-08T02:00:21;90807.81;;;2.65
43292;BMP280;28754;47.700;7.924;2024-03-08T02:03:07;90806.81;;;2.66
43292;BMP280;28754;47.700;7.924;2024-03-08T02:05:54;90805.59;;;2.68
43292;BMP280;28754;47.700;7.924;2024-03-08T02:08:43;90805.28;;;2.65
43292;BMP280;28754;47.700;7.924;2024-03-08T02:11:34;90797.47;;;2.66
43292;BMP280;28754;47.700;7.924;2024-03-08T02:14:22;90788.13;;;2.67
43292;BMP280;28754;47.700;7.924;2024-03-08T02:17:10;90789.81;;;2.61
43292;BMP280;28754;47.700;7.924;2024-03-08T02:19:58;90786.94;;;2.58
43292;BMP280;28754;47.700;7.924;2024-03-08T02:22:45;90782.34;;;2.55
43292;BMP280;28754;47.700;7.924;2024-03-08T02:25:32;90767.41;;;2.53
43292;BMP280;28754;47.700;7.924;2024-03-08T02:28:19;90781.91;;;2.58
43292;BMP280;28754;47.700;7.924;2024-03-08T02:31:06;90772.34;;;2.60
43292;BMP280;28754;47.700;7.924;2024-03-08T02:33:54;90758.25;;;2.64
43292;BMP280;28754;47.700;7.924;2024-03-08T02:36:42;90759.66;;;2.71
43292;BMP280;28754;47.700;7.924;2024-03-08T02:39:29;90758.00;;;2.76
43292;BMP280;28754;47.700;7.924;2024-03-08T02:42:15;90754.25;;;2.79
43292;BMP280;28754;47.700;7.924;2024-03-08T02:45:02;90754.47;;;2.77
43292;BMP280;28754;47.700;7.924;2024-03-08T02:47:51;90754.47;;;2.77
43292;BMP280;28754;47.700;7.924;2024-03-08T02:50:38;90758.06;;;2.81
43292;BMP280;28754;47.700;7.924;2024-03-08T02:53:31;90748.81;;;2.87
43292;BMP280;28754;47.700;7.924;2024-03-08T02:56:18;90761.22;;;2.88
43292;BMP280;28754;47.700;7.924;2024-03-08T02:59:05;90740.22;;;2.88
43292;BMP280;28754;47.700;7.924;2024-03-08T03:01:52;90743.31;;;2.90
43292;BMP280;28754;47.700;7.924;2024-03-08T03:04:42;90741.53;;;2.90
43292;BMP280;28754;47.700;7.924;2024-03-08T03:07:28;90729.22;;;2.94
43292;BMP280;28754;47.700;7.924;2024-03-08T03:10:17;90730.75;;;2.95
43292;BMP280;28754;47.700;7.924;2024-03-08T03:13:04;90750.22;;;2.94
43292;BMP280;28754;47.700;7.924;2024-03-08T03:15:51;90726.16;;;2.92
43292;BMP280;28754;47.700;7.924;2024-03-08T03:18:38;90724.59;;;2.91
43292;BMP280;28754;47.700;7.924;2024-03-08T03:21:27;90721.09;;;2.92
43292;BMP280;28754;47.700;7.924;2024-03-08T03:24:14;90722.63;;;2.93
43292;BMP280;28754;47.700;7.924;2024-03-08T03:27:02;90721.94;;;2.97
43292;BMP280;28754;47.700;7.924;2024-03-08T03:29:56;90712.34;;;2.99
43292;BMP280;28754;47.700;7.924;2024-03-08T03:32:44;90713.44;;;3.03
43292;BMP280;28754;47.700;7.924;2024-03-08T03:35:33;90714.06;;;3.10
43292;BMP280;28754;47.700;7.924;2024-03-08T03:38:20;90717.44;;;3.15
43292;BMP280;28754;47.700;7.924;2024-03-08T03:41:09;90708.19;;;3.21
43292;BMP280;28754;47.700;7.924;2024-03-08T03:43:56;90702.72;;;3.29
43292;BMP280;28754;47.700;7.924;2024-03-08T03:46:44;90704.56;;;3.33
43292;BMP280;28754;47.700;7.924;2024-03-08T03:49:30;90706.09;;;3.34
43292;BMP280;28754;47.700;7.924;2024-03-08T03:52:17;90700.72;;;3.31
43292;BMP280;28754;47.700;7.924;2024-03-08T03:55:04;90702.72;;;3.29
43292;BMP280;28754;47.700;7.924;2024-03-08T03:57:51;90697.59;;;3.24
43292;BMP280;28754;47.700;7.924;2024-03-08T04:00:38;90712.69;;;3.19
43292;BMP280;28754;47.700;7.924;2024-03-08T04:03:25;90704.78;;;3.15
43292;BMP280;28754;47.700;7.924;2024-03-08T04:06:12;90703.16;;;3.09
43292;BMP280;28754;47.700;7.924;2024-03-08T04:08:58;90700.91;;;3.08
43292;BMP280;28754;47.700;7.924;2024-03-08T04:11:45;90707.94;;;3.06
43292;BMP280;28754;47.700;7.924;2024-03-08T04:14:32;90694.13;;;2.97
43292;BMP280;28754;47.700;7.924;2024-03-08T04:17:19;90703.19;;;2.93
43292;BMP280;28754;47.700;7.924;2024-03-08T04:20:06;90696.19;;;2.84
43292;BMP280;28754;47.700;7.924;2024-03-08T04:23:00;90698.84;;;2.77
43292;BMP280;28754;47.700;7.924;2024-03-08T04:25:47;90697.69;;;2.69
43292;BMP280;28754;47.700;7.924;2024-03-08T04:28:34;90684.88;;;2.59
43292;BMP280;28754;47.700;7.924;2024-03-08T04:31:21;90691.06;;;2.51
43292;BMP280;28754;47.700;7.924;2024-03-08T04:34:08;90691.13;;;2.40
43292;BMP280;28754;47.700;7.924;2024-03-08T04:36:57;90703.34;;;2.32
43292;BMP280;28754;47.700;7.924;2024-03-08T04:39:44;90679.75;;;2.26
43292;BMP280;28754;47.700;7.924;2024-03-08T04:42:31;90673.72;;;2.27
43292;BMP280;28754;47.700;7.924;2024-03-08T04:45:19;90678.75;;;2.27
43292;BMP280;28754;47.700;7.924;2024-03-08T04:48:06;90673.94;;;2.26
43292;BMP280;28754;47.700;7.924;2024-03-08T04:50:55;90669.00;;;2.19
43292;BMP280;28754;47.700;7.924;2024-03-08T04:53:42;90691.88;;;2.13
43292;BMP280;28754;47.700;7.924;2024-03-08T04:56:28;90668.28;;;2.07
43292;BMP280;28754;47.700;7.924;2024-03-08T04:59:15;90674.53;;;2.05
43292;BMP280;28754;47.700;7.924;2024-03-08T05:02:02;90669.72;;;2.04
43292;BMP280;28754;47.700;7.924;2024-03-08T05:04:49;90676.22;;;2.00
43292;BMP280;28754;47.700;7.924;2024-03-08T05:07:36;90668.09;;;1.98
43292;BMP280;28754;47.700;7.924;2024-03-08T05:10:22;90671.06;;;1.95
43292;BMP280;28754;47.700;7.924;2024-03-08T05:13:09;90668.97;;;1.92
43292;BMP280;28754;47.700;7.924;2024-03-08T05:15:56;90660.56;;;1.86
43292;BMP280;28754;47.700;7.924;2024-03-08T05:18:44;90679.88;;;1.81
43292;BMP280;28754;47.700;7.924;2024-03-08T05:21:33;90677.56;;;1.79
43292;BMP280;28754;47.700;7.924;2024-03-08T05:24:20;90666.72;;;1.79
43292;BMP280;28754;47.700;7.924;2024-03-08T05:27:06;90668.81;;;1.82
43292;BMP280;28754;47.700;7.924;2024-03-08T05:29:53;90659.47;;;1.82
43292;BMP280;28754;47.700;7.924;2024-03-08T05:32:40;90685.34;;;1.89
43292;BMP280;28754;47.700;7.924;2024-03-08T05:35:26;90652.31;;;1.91
43292;BMP280;28754;47.700;7.924;2024-03-08T05:38:13;90659.44;;;1.94
43292;BMP280;28754;47.700;7.924;2024-03-08T05:40:59;90659.09;;;1.90
43292;BMP280;28754;47.700;7.924;2024-03-08T05:43:47;90660.44;;;1.81
43292;BMP280;28754;47.700;7.924;2024-03-08T05:46:35;90662.66;;;1.78
43292;BMP280;28754;47.700;7.924;2024-03-08T05:49:22;90663.63;;;1.77
43292;BMP280;28754;47.700;7.924;2024-03-08T05:52:08;90661.66;;;1.79
43292;BMP280;28754;47.700;7.924;2024-03-08T05:54:56;90650.03;;;1.78
43292;BMP280;28754;47.700;7.924;2024-03-08T05:57:42;90674.28;;;1.79
43292;BMP280;28754;47.700;7.924;2024-03-08T06:00:30;90679.31;;;1.79
43292;BMP280;28754;47.700;7.924;2024-03-08T06:03:17;90646.34;;;1.69
43292;BMP280;28754;47.700;7.924;2024-03-08T06:06:07;90647.22;;;1.63
43292;BMP280;28754;47.700;7.924;2024-03-08T06:08:54;90645.88;;;1.72
43292;BMP280;28754;47.700;7.924;2024-03-08T06:11:43;90646.41;;;2.13
43292;BMP280;28754;47.700;7.924;2024-03-08T06:14:29;90642.38;;;2.56
43292;BMP280;28754;47.700;7.924;2024-03-08T06:17:16;90644.78;;;2.95
43292;BMP280;28754;47.700;7.924;2024-03-08T06:20:04;90636.19;;;3.28
43292;BMP280;28754;47.700;7.924;2024-03-08T06:22:56;90638.25;;;3.69
43292;BMP280;28754;47.700;7.924;2024-03-08T06:25:44;90633.44;;;4.09
43292;BMP280;28754;47.700;7.924;2024-03-08T06:28:31;90629.78;;;4.48
43292;BMP280;28754;47.700;7.924;2024-03-08T06:31:18;90623.25;;;4.83
43292;BMP280;28754;47.700;7.924;2024-03-08T06:34:06;90625.09;;;5.23
43292;BMP280;28754;47.700;7.924;2024-03-08T06:36:54;90612.66;;;5.63
43292;BMP280;28754;47.700;7.924;2024-03-08T06:39:51;90617.97;;;6.07
43292;BMP280;28754;47.700;7.924;2024-03-08T06:42:38;90617.84;;;6.43
43292;BMP280;28754;47.700;7.924;2024-03-08T06:45:24;90620.47;;;6.87
43292;BMP280;28754;47.700;7.924;2024-03-08T06:48:12;90611.06;;;7.22
43292;BMP280;28754;47.700;7.924;2024-03-08T06:50:59;90616.34;;;7.65
43292;BMP280;28754;47.700;7.924;2024-03-08T06:53:45;90613.69;;;8.15
43292;BMP280;28754;47.700;7.924;2024-03-08T06:56:32;90606.09;;;8.62
43292;BMP280;28754;47.700;7.924;2024-03-08T06:59:19;90594.34;;;9.04
43292;BMP280;28754;47.700;7.924;2024-03-08T07:02:06;90602.66;;;9.53
43292;BMP280;28754;47.700;7.924;2024-03-08T07:04:55;90599.16;;;10.00
43292;BMP280;28754;47.700;7.924;2024-03-08T07:07:42;90600.22;;;10.40
43292;BMP280;28754;47.700;7.924;2024-03-08T07:10:29;90594.19;;;10.73
43292;BMP280;28754;47.700;7.924;2024-03-08T07:13:16;90586.84;;;11.03
43292;BMP280;28754;47.700;7.924;2024-03-08T07:16:03;90582.59;;;11.30
43292;BMP280;28754;47.700;7.924;2024-03-08T07:18:50;90571.31;;;11.63
43292;BMP280;28754;47.700;7.924;2024-03-08T07:21:39;90574.69;;;11.76
43292;BMP280;28754;47.700;7.924;2024-03-08T07:24:25;90571.03;;;12.09
43292;BMP280;28754;47.700;7.924;2024-03-08T07:27:35;90556.66;;;12.34
43292;BMP280;28754;47.700;7.924;2024-03-08T07:30:25;90572.13;;;12.69
43292;BMP280;28754;47.700;7.924;2024-03-08T07:33:29;90567.84;;;12.92
43292;BMP280;28754;47.700;7.924;2024-03-08T07:36:17;90570.03;;;13.20
43292;BMP280;28754;47.700;7.924;2024-03-08T07:39:03;90564.38;;;13.53
43292;BMP280;28754;47.700;7.924;2024-03-08T07:41:55;90561.25;;;13.94
43292;BMP280;28754;47.700;7.924;2024-03-08T07:44:42;90554.13;;;14.13
43292;BMP280;28754;47.700;7.924;2024-03-08T07:47:29;90555.59;;;14.36
43292;BMP280;28754;47.700;7.924;2024-03-08T07:50:19;90555.38;;;14.71
43292;BMP280;28754;47.700;7.924;2024-03-08T07:53:07;90552.22;;;14.99
43292;BMP280;28754;47.700;7.924;2024-03-08T07:55:54;90550.59;;;15.28
43292;BMP280;28754;47.700;7.924;2024-03-08T07:58:41;90553.47;;;15.77
43292;BMP280;28754;47.700;7.924;2024-03-08T08:01:28;90554.03;;;15.90
43292;BMP280;28754;47.700;7.924;2024-03-08T08:04:14;90547.75;;;16.08
43292;BMP280;28754;47.700;7.924;2024-03-08T08:07:04;90546.09;;;16.04
43292;BMP280;28754;47.700;7.924;2024-03-08T08:09:53;90551.88;;;16.01
43292;BMP280;28754;47.700;7.924;2024-03-08T08:12:39;90549.06;;;16.31
43292;BMP280;28754;47.700;7.924;2024-03-08T08:15:28;90534.56;;;16.47
43292;BMP280;28754;47.700;7.924;2024-03-08T08:18:15;90542.22;;;16.63
43292;BMP280;28754;47.700;7.924;2024-03-08T08:21:02;90537.75;;;16.72
43292;BMP280;28754;47.700;7.924;2024-03-08T08:23:49;90529.31;;;16.63
43292;BMP280;28754;47.700;7.924;2024-03-08T08:26:35;90534.28;;;16.77
43292;BMP280;28754;47.700;7.924;2024-03-08T08:29:22;90528.22;;;16.93
43292;BMP280;28754;47.700;7.924;2024-03-08T08:32:09;90528.81;;;16.98
43292;BMP280;28754;47.700;7.924;2024-03-08T08:34:57;90531.41;;;16.98
43292;BMP280;28754;47.700;7.924;2024-03-08T08:37:46;90523.69;;;16.90
43292;BMP280;28754;47.700;7.924;2024-03-08T08:40:34;90530.38;;;16.91
43292;BMP280;28754;47.700;7.924;2024-03-08T08:43:22;90527.47;;;16.92
43292;BMP280;28754;47.700;7.924;2024-03-08T08:46:11;90529.88;;;16.97
43292;BMP280;28754;47.700;7.924;2024-03-08T08:48:59;90529.75;;;16.94
43292;BMP280;28754;47.700;7.924;2024-03-08T08:51:50;90521.34;;;16.97
43292;BMP280;28754;47.700;7.924;2024-03-08T08:54:37;90520.63;;;17.37
43292;BMP280;28754;47.700;7.924;2024-03-08T08:57:23;90521.47;;;17.93
43292;BMP280;28754;47.700;7.924;2024-03-08T09:00:11;90515.44;;;18.45
43292;BMP280;28754;47.700;7.924;2024-03-08T09:03:01;90510.91;;;18.89
43292;BMP280;28754;47.700;7.924;2024-03-08T09:05:48;90510.25;;;19.04
43292;BMP280;28754;47.700;7.924;2024-03-08T09:08:36;90514.03;;;19.06
43292;BMP280;28754;47.700;7.924;2024-03-08T09:11:24;90510.03;;;18.85
43292;BMP280;28754;47.700;7.924;2024-03-08T09:14:11;90502.59;;;18.60
43292;BMP280;28754;47.700;7.924;2024-03-08T09:16:58;90494.47;;;18.50
43292;BMP280;28754;47.700;7.924;2024-03-08T09:19:45;90494.59;;;18.29
43292;BMP280;28754;47.700;7.924;2024-03-08T09:22:32;90485.50;;;18.12
43292;BMP280;28754;47.700;7.924;2024-03-08T09:25:18;90490.41;;;17.93
43292;BMP280;28754;47.700;7.924;2024-03-08T09:28:05;90485.56;;;17.59
43292;BMP280;28754;47.700;7.924;2024-03-08T09:30:52;90496.28;;;17.18
43292;BMP280;28754;47.700;7.924;2024-03-08T09:33:39;90487.00;;;16.68
43292;BMP280;28754;47.700;7.924;2024-03-08T09:36:25;90488.69;;;16.44
43292;BMP280;28754;47.700;7.924;2024-03-08T09:39:12;90487.72;;;16.28
43292;BMP280;28754;47.700;7.924;2024-03-08T09:42:03;90492.75;;;16.16
43292;BMP280;28754;47.700;7.924;2024-03-08T09:44:51;90501.16;;;15.96
43292;BMP280;28754;47.700;7.924;2024-03-08T09:47:45;90491.78;;;15.83
43292;BMP280;28754;47.700;7.924;2024-03-08T09:50:32;90498.34;;;15.73
43292;BMP280;28754;47.700;7.924;2024-03-08T09:53:19;90489.97;;;15.76
43292;BMP280;28754;47.700;7.924;2024-03-08T09:56:06;90476.16;;;15.80
43292;BMP280;28754;47.700;7.924;2024-03-08T09:58:53;90482.97;;;15.84
43292;BMP280;28754;47.700;7.924;2024-03-08T10:01:58;90481.16;;;15.85
43292;BMP280;28754;47.700;7.924;2024-03-08T10:04:45;90486.66;;;15.67
43292;BMP280;28754;47.700;7.924;2024-03-08T10:07:35;90487.31;;;15.47
43292;BMP280;28754;47.700;7.924;2024-03-08T10:10:21;90484.13;;;15.42
43292;BMP280;28754;47.700;7.924;2024-03-08T10:13:09;90484.13;;;15.50
43292;BMP280;28754;47.700;7.924;2024-03-08T10:15:56;90484.53;;;15.69
43292;BMP280;28754;47.700;7.924;2024-03-08T10:18:45;90481.50;;;15.67
43292;BMP280;28754;47.700;7.924;2024-03-08T10:21:33;90474.88;;;15.57
43292;BMP280;28754;47.700;7.924;2024-03-08T10:24:20;90478.56;;;15.31
43292;BMP280;28754;47.700;7.924;2024-03-08T10:27:06;90469.91;;;14.94
43292;BMP280;28754;47.700;7.924;2024-03-08T10:29:53;90460.34;;;14.69
43292;BMP280;28754;47.700;7.924;2024-03-08T10:32:41;90462.91;;;14.77
43292;BMP280;28754;47.700;7.924;2024-03-08T10:35:28;90470.81;;;14.73
43292;BMP280;28754;47.700;7.924;2024-03-08T10:38:20;90466.72;;;14.63
43292;BMP280;28754;47.700;7.924;2024-03-08T10:41:10;90470.34;;;14.79
43292;BMP280;28754;47.700;7.924;2024-03-08T10:47:19;90455.34;;;14.89
43292;BMP280;28754;47.700;7.924;2024-03-08T10:53:06;90450.34;;;14.93
43292;BMP280;28754;47.700;7.924;2024-03-08T10:55:53;90458.84;;;14.76
43292;BMP280;28754;47.700;7.924;2024-03-08T10:58:42;90458.53;;;14.78
43292;BMP280;28754;47.700;7.924;2024-03-08T11:01:31;90455.34;;;14.89
43292;BMP280;28754;47.700;7.924;2024-03-08T11:04:17;90452.16;;;15.01
43292;BMP280;28754;47.700;7.924;2024-03-08T11:07:13;90461.56;;;14.88
43292;BMP280;28754;47.700;7.924;2024-03-08T11:10:04;90449.72;;;14.54
43292;BMP280;28754;47.700;7.924;2024-03-08T11:12:57;90442.75;;;14.38
43292;BMP280;28754;47.700;7.924;2024-03-08T11:15:46;90436.94;;;14.24
43292;BMP280;28754;47.700;7.924;2024-03-08T11:18:33;90434.69;;;14.39
43292;BMP280;28754;47.700;7.924;2024-03-08T11:21:21;90439.88;;;14.56
43292;BMP280;28754;47.700;7.924;2024-03-08T11:24:14;90424.41;;;14.64
43292;BMP280;28754;47.700;7.924;2024-03-08T11:27:03;90425.50;;;14.80
43292;BMP280;28754;47.700;7.924;2024-03-08T11:30:07;90434.56;;;14.94
43292;BMP280;28754;47.700;7.924;2024-03-08T11:33:01;90443.50;;;15.05
43292;BMP280;28754;47.700;7.924;2024-03-08T11:35:49;90440.00;;;15.09
43292;BMP280;28754;47.700;7.924;2024-03-08T11:38:41;90426.69;;;15.16
43292;BMP280;28754;47.700;7.924;2024-03-08T11:41:28;90404.53;;;15.32
43292;BMP280;28754;47.700;7.924;2024-03-08T11:44:17;90409.66;;;15.40
43292;BMP280;28754;47.700;7.924;2024-03-08T11:47:10;90412.25;;;15.40
43292;BMP280;28754;47.700;7.924;2024-03-08T11:49:57;90405.63;;;15.14
43292;BMP280;28754;47.700;7.924;2024-03-08T11:52:44;90399.41;;;14.90
43292;BMP280;28754;47.700;7.924;2024-03-08T11:55:32;90398.50;;;14.86
43292;BMP280;28754;47.700;7.924;2024-03-08T11:58:22;90401.22;;;14.81
43292;BMP280;28754;47.700;7.924;2024-03-08T12:01:10;90392.28;;;14.95
43292;BMP280;28754;47.700;7.924;2024-03-08T12:03:59;90393.47;;;15.06
43292;BMP280;28754;47.700;7.924;2024-03-08T12:06:47;90382.09;;;15.15
43292;BMP280;28754;47.700;7.924;2024-03-08T12:09:37;90375.00;;;15.12
43292;BMP280;28754;47.700;7.924;2024-03-08T12:12:24;90379.09;;;14.88
43292;BMP280;28754;47.700;7.924;2024-03-08T12:15:11;90366.38;;;14.75
43292;BMP280;28754;47.700;7.924;2024-03-08T12:17:59;90369.41;;;14.60
43292;BMP280;28754;47.700;7.924;2024-03-08T12:20:46;90361.22;;;14.58
43292;BMP280;28754;47.700;7.924;2024-03-08T12:23:38;90356.06;;;14.58
43292;BMP280;28754;47.700;7.924;2024-03-08T12:26:25;90353.50;;;14.58
43292;BMP280;28754;47.700;7.924;2024-03-08T12:29:21;90351.38;;;14.60
43292;BMP280;28754;47.700;7.924;2024-03-08T12:32:08;90345.81;;;14.42
43292;BMP280;28754;47.700;7.924;2024-03-08T12:34:58;90340.66;;;14.25
43292;BMP280;28754;47.700;7.924;2024-03-08T12:37:44;90331.41;;;14.24
43292;BMP280;28754;47.700;7.924;2024-03-08T12:40:33;90334.28;;;14.31
43292;BMP280;28754;47.700;7.924;2024-03-08T12:43:27;90328.69;;;14.37
43292;BMP280;28754;47.700;7.924;2024-03-08T12:46:20;90332.94;;;14.50
43292;BMP280;28754;47.700;7.924;2024-03-08T12:49:08;90318.81;;;14.47
43292;BMP280;28754;47.700;7.924;2024-03-08T12:51:56;90315.50;;;14.39
43292;BMP280;28754;47.700;7.924;2024-03-08T12:54:42;90315.03;;;14.37
43292;BMP280;28754;47.700;7.924;2024-03-08T12:57:29;90319.88;;;14.38
43292;BMP280;28754;47.700;7.924;2024-03-08T13:00:16;90309.41;;;14.51
43292;BMP280;28754;47.700;7.924;2024-03-08T13:03:05;90317.31;;;14.63
43292;BMP280;28754;47.700;7.924;2024-03-08T13:05:53;90302.75;;;14.67
43292;BMP280;28754;47.700;7.924;2024-03-08T13:08:39;90290.16;;;14.66
43292;BMP280;28754;47.700;7.924;2024-03-08T13:11:26;90282.13;;;14.67
43292;BMP280;28754;47.700;7.924;2024-03-08T13:14:13;90274.25;;;14.64
43292;BMP280;28754;47.700;7.924;2024-03-08T13:17:00;90272.78;;;14.54
43292;BMP280;28754;47.700;7.924;2024-03-08T13:19:47;90269.44;;;14.45
43292;BMP280;28754;47.700;7.924;2024-03-08T13:22:33;90275.03;;;14.39
43292;BMP280;28754;47.700;7.924;2024-03-08T13:25:20;90274.28;;;14.39
43292;BMP280;28754;47.700;7.924;2024-03-08T13:28:07;90284.00;;;14.42
43292;BMP280;28754;47.700;7.924;2024-03-08T13:30:54;90267.78;;;14.41
43292;BMP280;28754;47.700;7.924;2024-03-08T13:33:41;90276.28;;;14.33
43292;BMP280;28754;47.700;7.924;2024-03-08T13:36:32;90269.03;;;14.27
43292;BMP280;28754;47.700;7.924;2024-03-08T13:39:25;90250.06;;;14.40
43292;BMP280;28754;47.700;7.924;2024-03-08T13:42:13;90250.56;;;14.87
43292;BMP280;28754;47.700;7.924;2024-03-08T13:45:01;90240.97;;;15.33
43292;BMP280;28754;47.700;7.924;2024-03-08T13:47:48;90236.22;;;15.92
43292;BMP280;28754;47.700;7.924;2024-03-08T13:50:37;90237.25;;;16.51
43292;BMP280;28754;47.700;7.924;2024-03-08T13:53:24;90242.13;;;17.09
43292;BMP280;28754;47.700;7.924;2024-03-08T13:56:11;90227.84;;;17.35
43292;BMP280;28754;47.700;7.924;2024-03-08T13:58:57;90232.56;;;17.45
43292;BMP280;28754;47.700;7.924;2024-03-08T14:01:44;90231.16;;;17.71
43292;BMP280;28754;47.700;7.924;2024-03-08T14:04:31;90216.94;;;17.65
43292;BMP280;28754;47.700;7.924;2024-03-08T14:07:17;90214.00;;;17.43
43292;BMP280;28754;47.700;7.924;2024-03-08T14:10:05;90209.63;;;16.76
43292;BMP280;28754;47.700;7.924;2024-03-08T14:12:53;90217.03;;;16.53
43292;BMP280;28754;47.700;7.924;2024-03-08T14:15:40;90209.19;;;16.74
43292;BMP280;28754;47.700;7.924;2024-03-08T14:18:28;90212.25;;;16.87
43292;BMP280;28754;47.700;7.924;2024-03-08T14:21:15;90213.97;;;16.95
43292;BMP280;28754;47.700;7.924;2024-03-08T14:24:03;90210.56;;;16.59
43292;BMP280;28754;47.700;7.924;2024-03-08T14:26:51;90218.19;;;15.83
43292;BMP280;28754;47.700;7.924;2024-03-08T14:29:38;90218.66;;;15.37
43292;BMP280;28754;47.700;7.924;2024-03-08T14:32:25;90221.97;;;15.09
43292;BMP280;28754;47.700;7.924;2024-03-08T14:35:12;90213.84;;;15.27
43292;BMP280;28754;47.700;7.924;2024-03-08T14:37:58;90212.22;;;15.51
43292;BMP280;28754;47.700;7.924;2024-03-08T14:40:45;90202.53;;;15.68
43292;BMP280;28754;47.700;7.924;2024-03-08T14:43:33;90195.63;;;15.80
43292;BMP280;28754;47.700;7.924;2024-03-08T14:46:20;90190.25;;;15.85
43292;BMP280;28754;47.700;7.924;2024-03-08T14:49:09;90186.28;;;15.88
43292;BMP280;28754;47.700;7.924;2024-03-08T14:52:14;90190.38;;;15.69
43292;BMP280;28754;47.700;7.924;2024-03-08T14:55:14;90182.34;;;15.42
43292;BMP280;28754;47.700;7.924;2024-03-08T14:58:01;90188.84;;;15.27
43292;BMP280;28754;47.700;7.924;2024-03-08T15:00:47;90183.47;;;15.04
43292;BMP280;28754;47.700;7.924;2024-03-08T15:03:36;90179.31;;;14.91
43292;BMP280;28754;47.700;7.924;2024-03-08T15:06:23;90165.81;;;14.85
43292;BMP280;28754;47.700;7.924;2024-03-08T15:09:11;90168.13;;;15.07
43292;BMP280;28754;47.700;7.924;2024-03-08T15:11:58;90161.88;;;15.25
43292;BMP280;28754;47.700;7.924;2024-03-08T15:14:45;90161.41;;;15.23
43292;BMP280;28754;47.700;7.924;2024-03-08T15:17:32;90156.59;;;15.13
43292;BMP280;28754;47.700;7.924;2024-03-08T15:20:19;90155.13;;;15.04
43292;BMP280;28754;47.700;7.924;2024-03-08T15:23:15;90153.63;;;14.94
43292;BMP280;28754;47.700;7.924;2024-03-08T15:26:03;90146.91;;;14.73
43292;BMP280;28754;47.700;7.924;2024-03-08T15:28:53;90142.09;;;14.72
43292;BMP280;28754;47.700;7.924;2024-03-08T15:31:40;90141.06;;;14.64
43292;BMP280;28754;47.700;7.924;2024-03-08T15:34:29;90132.91;;;14.54
43292;BMP280;28754;47.700;7.924;2024-03-08T15:37:18;90126.31;;;14.36
43292;BMP280;28754;47.700;7.924;2024-03-08T15:40:05;90122.72;;;14.29
43292;BMP280;28754;47.700;7.924;2024-03-08T15:42:57;90112.72;;;14.27
43292;BMP280;28754;47.700;7.924;2024-03-08T15:45:45;90114.63;;;14.02
43292;BMP280;28754;47.700;7.924;2024-03-08T15:48:33;90114.50;;;13.81
43292;BMP280;28754;47.700;7.924;2024-03-08T15:51:21;90102.84;;;13.59
43292;BMP280;28754;47.700;7.924;2024-03-08T15:54:08;90108.31;;;13.40
43292;BMP280;28754;47.700;7.924;2024-03-08T15:56:56;90106.97;;;13.18
43292;BMP280;28754;47.700;7.924;2024-03-08T15:59:44;90098.63;;;13.12
43292;BMP280;28754;47.700;7.924;2024-03-08T16:02:32;90096.69;;;13.18
43292;BMP280;28754;47.700;7.924;2024-03-08T16:05:19;90086.84;;;13.11
43292;BMP280;28754;47.700;7.924;2024-03-08T16:08:07;90091.22;;;13.03
43292;BMP280;28754;47.700;7.924;2024-03-08T16:11:01;90100.44;;;12.95
43292;BMP280;28754;47.700;7.924;2024-03-08T16:13:52;90098.59;;;12.79
43292;BMP280;28754;47.700;7.924;2024-03-08T16:16:38;90097.31;;;12.60
43292;BMP280;28754;47.700;7.924;2024-03-08T16:19:25;90095.91;;;12.45